createdAt,value
2019-04-11T00:00:53.723Z,2.80
2019-04-11T00:01:53.708Z,3.20
2019-04-11T00:02:53.698Z,3.10
2019-04-11T00:03:53.729Z,3.00
2019-04-11T00:04:54.664Z,2.90
2019-04-11T00:05:53.662Z,3.20
2019-04-11T00:06:54.044Z,3.30
2019-04-11T00:07:54.312Z,3.10
2019-04-11T00:08:54.345Z,3.20
2019-04-11T00:09:54.585Z,3.10
2019-04-11T00:10:53.614Z,3.00
2019-04-11T00:11:54.445Z,3.00
2019-04-11T00:12:54.765Z,2.80
2019-04-11T00:13:53.682Z,2.80
2019-04-11T00:14:53.941Z,3.30
2019-04-11T00:15:53.569Z,3.10
2019-04-11T00:16:53.542Z,3.00
2019-04-11T00:17:54.375Z,2.90
2019-04-11T00:18:54.487Z,3.10
2019-04-11T00:19:53.758Z,3.00
2019-04-11T00:20:53.526Z,3.10
2019-04-11T00:21:53.485Z,2.90
2019-04-11T00:22:54.141Z,2.90
2019-04-11T00:23:54.513Z,3.00
2019-04-11T00:24:53.476Z,3.10
2019-04-11T00:25:53.459Z,3.10
2019-04-11T00:26:53.439Z,3.20
2019-04-11T00:27:53.417Z,2.80
2019-04-11T00:28:54.226Z,2.80
2019-04-11T00:29:53.428Z,3.10
2019-04-11T00:30:54.565Z,2.80
2019-04-11T00:31:53.375Z,2.60
2019-04-11T00:32:53.865Z,3.60
2019-04-11T00:33:54.259Z,2.70
2019-04-11T00:34:53.372Z,3.00
2019-04-11T00:35:53.363Z,3.20
2019-04-11T00:36:53.346Z,3.10
2019-04-11T00:37:53.711Z,3.10
2019-04-11T00:38:53.455Z,2.90
2019-04-11T00:39:54.146Z,2.70
2019-04-11T00:40:53.343Z,2.80
2019-04-11T00:41:54.176Z,2.90
2019-04-11T00:42:53.267Z,2.90
2019-04-11T00:43:53.247Z,3.00
2019-04-11T00:44:53.235Z,2.90
2019-04-11T00:45:54.079Z,2.90
2019-04-11T00:46:53.214Z,2.90
2019-04-11T00:47:53.259Z,2.90
2019-04-11T00:48:54.387Z,3.00
2019-04-11T00:49:53.212Z,3.10
2019-04-11T00:50:53.799Z,3.30
2019-04-11T00:51:53.169Z,3.10
2019-04-11T00:52:53.727Z,3.50
2019-04-11T00:53:54.082Z,3.00
2019-04-11T00:54:53.262Z,2.80
2019-04-11T00:55:53.611Z,2.70
2019-04-11T00:56:53.150Z,2.90
2019-04-11T00:57:53.137Z,2.90
2019-04-11T00:58:54.003Z,2.90
2019-04-11T00:59:54.298Z,2.90
2019-04-11T01:00:53.495Z,3.00
2019-04-11T01:01:53.404Z,3.10
2019-04-11T01:02:53.712Z,3.00
2019-04-11T01:03:53.709Z,2.90
2019-04-11T01:04:53.002Z,3.20
2019-04-11T01:05:54.004Z,2.90
2019-04-11T01:06:53.008Z,2.90
2019-04-11T01:07:53.403Z,2.90
2019-04-11T01:08:53.723Z,2.50
2019-04-11T01:09:52.954Z,2.90
2019-04-11T01:10:52.994Z,2.70
2019-04-11T01:11:54.237Z,2.90
2019-04-11T01:12:53.255Z,3.10
2019-04-11T01:13:55.305Z,2.90
2019-04-11T01:14:53.176Z,2.80
2019-04-11T01:15:52.916Z,3.00
2019-04-11T01:16:52.885Z,2.80
2019-04-11T01:17:53.805Z,3.10
2019-04-11T01:18:54.033Z,3.00
2019-04-11T01:19:53.220Z,2.70
2019-04-11T01:20:53.693Z,2.80
2019-04-11T01:21:52.978Z,2.90
2019-04-11T01:22:52.832Z,3.00
2019-04-11T01:23:53.424Z,2.80
2019-04-11T01:24:52.783Z,2.90
2019-04-11T01:25:52.789Z,3.00
2019-04-11T01:26:53.805Z,2.90
2019-04-11T01:27:52.768Z,2.80
2019-04-11T01:28:53.515Z,2.90
2019-04-11T01:29:52.744Z,2.70
2019-04-11T01:30:53.344Z,2.90
2019-04-11T01:31:53.838Z,2.90
2019-04-11T01:32:52.760Z,3.00
2019-04-11T01:33:53.853Z,2.90
2019-04-11T01:34:52.969Z,2.90
2019-04-11T01:35:53.338Z,2.50
2019-04-11T01:36:53.427Z,2.80
2019-04-11T01:37:52.656Z,2.60
2019-04-11T01:38:52.682Z,2.70
2019-04-11T01:39:53.667Z,2.70
2019-04-11T01:40:52.625Z,2.90
2019-04-11T01:41:53.019Z,2.90
2019-04-11T01:42:52.679Z,2.80
2019-04-11T01:43:59.281Z,2.80
2019-04-11T01:44:54.729Z,2.90
2019-04-11T01:45:53.588Z,3.00
2019-04-11T01:46:52.573Z,2.90
2019-04-11T01:47:53.251Z,2.70
2019-04-11T01:48:52.554Z,2.80
2019-04-11T01:49:52.538Z,2.70
2019-04-11T01:50:53.570Z,2.70
2019-04-11T01:51:52.485Z,3.10
2019-04-11T01:52:52.975Z,3.10
2019-04-11T01:53:52.467Z,3.00
2019-04-11T01:54:52.459Z,2.90
2019-04-11T01:55:52.618Z,3.10
2019-04-11T01:56:53.660Z,2.90
2019-04-11T01:57:52.445Z,2.80
2019-04-11T01:58:53.102Z,2.90
2019-04-11T01:59:53.381Z,3.10
2019-04-11T02:00:52.585Z,2.60
2019-04-11T02:01:52.804Z,2.90
2019-04-11T02:02:52.904Z,3.00
2019-04-11T02:03:52.412Z,2.80
2019-04-11T02:04:52.382Z,2.80
2019-04-11T02:05:53.419Z,2.90
2019-04-11T02:06:52.359Z,2.70
2019-04-11T02:07:53.227Z,3.00
2019-04-11T02:08:52.476Z,3.00
2019-04-11T02:09:52.606Z,2.70
2019-04-11T02:10:52.899Z,2.80
2019-04-11T02:11:52.281Z,2.80
2019-04-11T02:12:53.265Z,2.90
2019-04-11T02:14:05.090Z,2.90
2019-04-11T02:14:53.238Z,2.90
2019-04-11T02:15:54.223Z,2.70
2019-04-11T02:16:52.306Z,2.90
2019-04-11T02:17:52.303Z,2.90
2019-04-11T02:18:52.279Z,2.90
2019-04-11T02:19:52.388Z,2.80
2019-04-11T02:20:54.211Z,2.70
2019-04-11T02:21:52.179Z,2.90
2019-04-11T02:22:52.844Z,2.90
2019-04-11T02:23:53.114Z,2.70
2019-04-11T02:24:52.289Z,3.00
2019-04-11T02:25:52.484Z,2.90
2019-04-11T02:26:52.505Z,2.90
2019-04-11T02:27:52.531Z,2.80
2019-04-11T02:28:53.008Z,2.90
2019-04-11T02:29:53.026Z,2.90
2019-04-11T02:30:54.389Z,2.90
2019-04-11T02:31:52.880Z,2.90
2019-04-11T02:32:53.552Z,2.70
2019-04-11T02:33:52.045Z,2.80
2019-04-11T02:34:54.569Z,2.70
2019-04-11T02:35:52.011Z,2.80
2019-04-11T02:36:53.791Z,2.70
2019-04-11T02:37:52.152Z,2.80
2019-04-11T02:38:55.319Z,2.60
2019-04-11T02:39:53.647Z,3.10
2019-04-11T02:40:52.554Z,3.00
2019-04-11T02:41:52.752Z,2.80
2019-04-11T02:42:52.134Z,2.80
2019-04-11T02:43:51.938Z,3.20
2019-04-11T02:45:03.441Z,2.90
2019-04-11T02:46:08.840Z,2.80
2019-04-11T02:47:00.784Z,2.80
2019-04-11T02:47:54.346Z,3.10
2019-04-11T02:48:52.262Z,2.70
2019-04-11T02:49:51.950Z,2.80
2019-04-11T02:50:51.842Z,2.80
2019-04-11T02:51:53.416Z,2.90
2019-04-11T02:52:52.713Z,3.10
2019-04-11T02:53:52.483Z,2.70
2019-04-11T02:54:52.679Z,2.80
2019-04-11T02:55:52.141Z,2.70
2019-04-11T02:56:52.904Z,3.00
2019-04-11T02:57:51.763Z,2.80
2019-04-11T02:58:52.282Z,2.80
2019-04-11T02:59:53.700Z,2.80
2019-04-11T03:00:53.649Z,2.80
2019-04-11T03:01:52.935Z,3.00
2019-04-11T03:02:53.154Z,2.90
2019-04-11T03:03:52.041Z,2.80
2019-04-11T03:04:52.855Z,2.70
2019-04-11T03:05:53.256Z,2.60
2019-04-11T03:06:52.066Z,2.90
2019-04-11T03:07:51.655Z,3.10
2019-04-11T03:08:53.032Z,2.90
2019-04-11T03:09:53.393Z,2.80
2019-04-11T03:10:53.334Z,2.80
2019-04-11T03:11:51.695Z,2.80
2019-04-11T03:12:52.688Z,2.70
2019-04-11T03:13:52.708Z,2.90
2019-04-11T03:15:09.332Z,2.60
2019-04-11T03:16:07.164Z,2.80
2019-04-11T03:17:02.500Z,2.70
2019-04-11T03:17:57.654Z,2.70
2019-04-11T03:19:09.015Z,3.00
2019-04-11T03:20:04.061Z,2.70
2019-04-11T03:20:56.706Z,3.00
2019-04-11T03:21:54.035Z,3.00
2019-04-11T03:22:57.310Z,3.00
2019-04-11T03:23:52.493Z,2.90
2019-04-11T03:24:53.292Z,2.60
2019-04-11T03:25:52.440Z,2.80
2019-04-11T03:26:52.635Z,3.00
2019-04-11T03:27:52.177Z,2.70
2019-04-11T03:28:55.802Z,2.90
2019-04-11T03:29:53.833Z,2.70
2019-04-11T03:31:15.846Z,3.10
2019-04-11T03:35:45.519Z,2.80
2019-04-11T03:37:00.586Z,2.70
2019-04-11T03:37:26.213Z,2.80
2019-04-11T03:38:15.632Z,2.80
2019-04-11T03:39:13.123Z,2.50
2019-04-11T03:40:13.112Z,2.60
2019-04-11T03:41:10.305Z,2.80
2019-04-11T03:42:13.018Z,2.70
2019-04-11T03:43:07.874Z,2.50
2019-04-11T03:44:01.733Z,2.60
2019-04-11T03:45:15.293Z,2.80
2019-04-11T03:46:10.967Z,2.70
2019-04-11T03:47:06.926Z,2.80
2019-04-11T03:48:06.232Z,2.70
2019-04-11T03:49:01.245Z,2.60
2019-04-11T03:50:00.734Z,2.50
2019-04-11T03:50:54.287Z,2.80
2019-04-11T03:51:52.956Z,2.90
2019-04-11T03:52:51.849Z,2.90
2019-04-11T03:53:51.773Z,2.80
2019-04-11T03:54:51.327Z,2.90
2019-04-11T03:55:51.638Z,2.70
2019-04-11T03:56:51.734Z,2.60
2019-04-11T03:57:51.782Z,2.80
2019-04-11T03:58:51.114Z,2.70
2019-04-11T03:59:52.004Z,2.50
2019-04-11T04:00:53.531Z,2.90
2019-04-11T04:01:54.021Z,2.80
2019-04-11T04:02:52.452Z,2.90
2019-04-11T04:03:51.919Z,2.70
2019-04-11T04:04:51.381Z,3.10
2019-04-11T04:05:52.663Z,2.70
2019-04-11T04:06:51.009Z,2.60
2019-04-11T04:07:52.390Z,2.80
2019-04-11T04:08:53.008Z,2.70
2019-04-11T04:09:51.251Z,2.90
2019-04-11T04:10:51.867Z,2.60
2019-04-11T04:11:51.307Z,2.70
2019-04-11T04:12:51.746Z,2.60
2019-04-11T04:13:51.765Z,2.70
2019-04-11T04:14:51.569Z,2.80
2019-04-11T04:15:59.989Z,3.50
2019-04-11T04:16:54.817Z,3.00
2019-04-11T04:17:52.097Z,3.50
2019-04-11T04:18:51.744Z,3.80
2019-04-11T04:19:51.767Z,3.80
2019-04-11T04:20:51.270Z,4.20
2019-04-11T04:21:51.169Z,4.10
2019-04-11T04:22:52.286Z,4.40
2019-04-11T04:23:51.925Z,4.10
2019-04-11T04:24:51.740Z,3.90
2019-04-11T04:25:51.649Z,4.40
2019-04-11T04:26:52.446Z,4.50
2019-04-11T04:27:51.316Z,4.00
2019-04-11T04:28:51.318Z,4.40
2019-04-11T04:29:53.832Z,4.20
2019-04-11T04:30:51.876Z,4.30
2019-04-11T04:31:50.927Z,4.50
2019-04-11T04:32:52.219Z,4.80
2019-04-11T04:33:51.430Z,4.40
2019-04-11T04:34:51.173Z,4.00
2019-04-11T04:35:51.810Z,4.50
2019-04-11T04:36:51.530Z,4.60
2019-04-11T04:37:51.728Z,4.40
2019-04-11T04:38:50.675Z,4.10
2019-04-11T04:40:10.710Z,4.60
2019-04-11T04:41:08.836Z,4.50
2019-04-11T04:41:58.795Z,4.70
2019-04-11T04:42:55.479Z,4.20
2019-04-11T04:43:52.901Z,4.60
2019-04-11T04:44:51.083Z,4.60
2019-04-11T04:46:08.785Z,4.30
2019-04-11T04:47:00.117Z,4.30
2019-04-11T04:47:56.559Z,4.80
2019-04-11T04:48:51.657Z,4.60
2019-04-11T04:49:52.141Z,4.90
2019-04-11T04:50:52.345Z,4.70
2019-04-11T04:51:51.162Z,4.70
2019-04-11T04:52:51.589Z,4.40
2019-04-11T04:53:52.005Z,4.60
2019-04-11T04:54:50.478Z,4.40
2019-04-11T04:55:52.214Z,4.50
2019-04-11T04:56:52.272Z,4.40
2019-04-11T04:57:51.068Z,4.30
2019-04-11T04:58:50.929Z,4.50
2019-04-11T04:59:50.588Z,4.40
2019-04-11T05:00:52.029Z,4.20
2019-04-11T05:01:50.823Z,4.10
2019-04-11T05:02:50.411Z,4.30
2019-04-11T05:03:50.907Z,4.10
2019-04-11T05:04:52.020Z,4.00
2019-04-11T05:05:51.058Z,4.20
2019-04-11T05:06:52.258Z,4.00
2019-04-11T05:07:51.859Z,3.60
2019-04-11T05:08:51.425Z,3.80
2019-04-11T05:09:50.772Z,3.80
2019-04-11T05:10:51.295Z,3.40
2019-04-11T05:11:50.775Z,3.70
2019-04-11T05:12:51.390Z,3.50
2019-04-11T05:13:51.755Z,3.30
2019-04-11T05:14:51.793Z,3.40
2019-04-11T05:16:03.825Z,2.70
2019-04-11T05:16:52.565Z,3.00
2019-04-11T05:17:51.235Z,3.00
2019-04-11T05:18:50.479Z,2.50
2019-04-11T05:19:50.910Z,2.70
2019-04-11T05:20:50.415Z,2.50
2019-04-11T05:21:50.194Z,2.60
2019-04-11T05:22:51.241Z,2.70
2019-04-11T05:23:50.151Z,2.50
2019-04-11T05:24:50.149Z,2.40
2019-04-11T05:25:50.890Z,2.50
2019-04-11T05:26:50.393Z,2.40
2019-04-11T05:27:50.107Z,2.40
2019-04-11T05:28:51.029Z,2.20
2019-04-11T05:29:50.093Z,2.20
2019-04-11T05:30:51.164Z,2.40
2019-04-11T05:31:51.076Z,2.40
2019-04-11T05:32:50.301Z,2.30
2019-04-11T05:33:50.046Z,2.40
2019-04-11T05:34:51.105Z,2.50
2019-04-11T05:35:50.119Z,2.30
2019-04-11T05:36:50.024Z,2.50
2019-04-11T05:37:50.040Z,2.50
2019-04-11T05:38:50.563Z,2.40
2019-04-11T05:39:50.468Z,2.40
2019-04-11T05:40:50.346Z,2.20
2019-04-11T05:41:51.279Z,2.30
2019-04-11T05:42:53.407Z,2.30
2019-04-11T05:43:49.930Z,2.40
2019-04-11T05:44:50.033Z,2.10
2019-04-11T05:45:54.380Z,2.10
2019-04-11T05:46:56.243Z,2.40
2019-04-11T05:47:54.708Z,2.30
2019-04-11T05:48:50.656Z,2.40
2019-04-11T05:49:50.608Z,2.20
2019-04-11T05:50:51.543Z,2.10
2019-04-11T05:51:51.955Z,2.10
2019-04-11T05:52:50.864Z,2.10
2019-04-11T05:53:52.639Z,2.00
2019-04-11T05:54:51.084Z,2.00
2019-04-11T05:55:50.952Z,2.00
2019-04-11T05:56:53.877Z,2.10
2019-04-11T05:57:50.781Z,2.40
2019-04-11T05:58:49.763Z,2.20
2019-04-11T05:59:53.070Z,2.10
2019-04-11T06:00:49.760Z,2.10
2019-04-11T06:01:50.800Z,2.20
2019-04-11T06:02:49.732Z,2.10
2019-04-11T06:03:50.873Z,2.00
2019-04-11T06:04:53.492Z,2.20
2019-04-11T06:05:51.971Z,2.00
2019-04-11T06:06:50.637Z,2.10
2019-04-11T06:07:50.748Z,2.00
2019-04-11T06:08:49.701Z,1.80
2019-04-11T06:09:49.644Z,1.80
2019-04-11T06:10:50.436Z,2.10
2019-04-11T06:11:52.373Z,2.10
2019-04-11T06:12:50.515Z,2.50
2019-04-11T06:13:49.620Z,2.20
2019-04-11T06:14:49.611Z,2.20
2019-04-11T06:15:49.576Z,2.10
2019-04-11T06:16:53.836Z,1.90
2019-04-11T06:17:50.566Z,2.00
2019-04-11T06:18:50.133Z,2.00
2019-04-11T06:19:50.055Z,2.20
2019-04-11T06:20:49.691Z,2.20
2019-04-11T06:21:50.486Z,1.90
2019-04-11T06:22:49.803Z,2.20
2019-04-11T06:23:49.854Z,1.80
2019-04-11T06:24:50.165Z,2.20
2019-04-11T06:25:49.508Z,2.00
2019-04-11T06:26:49.453Z,2.10
2019-04-11T06:27:49.555Z,2.50
2019-04-11T06:28:49.508Z,2.20
2019-04-11T06:29:50.496Z,2.30
2019-04-11T06:30:50.631Z,2.10
2019-04-11T06:31:49.526Z,2.50
2019-04-11T06:32:49.436Z,3.10
2019-04-11T06:33:49.376Z,2.50
2019-04-11T06:34:49.389Z,2.30
2019-04-11T06:35:50.354Z,2.30
2019-04-11T06:36:49.641Z,2.20
2019-04-11T06:37:49.916Z,2.10
2019-04-11T06:38:49.387Z,2.20
2019-04-11T06:39:49.492Z,2.00
2019-04-11T06:40:50.989Z,2.00
2019-04-11T06:41:49.287Z,2.00
2019-04-11T06:42:49.661Z,2.30
2019-04-11T06:43:50.033Z,2.00
2019-04-11T06:44:50.123Z,2.10
2019-04-11T06:45:49.250Z,2.40
2019-04-11T06:46:54.484Z,2.50
2019-04-11T06:47:51.285Z,2.60
2019-04-11T06:48:49.651Z,2.30
2019-04-11T06:49:49.208Z,2.70
2019-04-11T06:50:49.427Z,2.80
2019-04-11T06:51:50.238Z,2.30
2019-04-11T06:52:49.179Z,2.40
2019-04-11T06:53:49.170Z,2.70
2019-04-11T06:54:49.548Z,2.80
2019-04-11T06:55:49.142Z,2.40
2019-04-11T06:56:50.365Z,2.60
2019-04-11T06:57:49.987Z,2.40
2019-04-11T06:58:52.018Z,2.40
2019-04-11T06:59:50.343Z,3.20
2019-04-11T07:00:50.035Z,2.80
2019-04-11T07:01:49.101Z,2.40
2019-04-11T07:02:49.063Z,2.30
2019-04-11T07:03:49.131Z,2.60
2019-04-11T07:04:49.627Z,2.40
2019-04-11T07:05:49.021Z,2.50
2019-04-11T07:06:49.009Z,2.60
2019-04-11T07:07:49.488Z,2.30
2019-04-11T07:08:49.078Z,2.40
2019-04-11T07:09:49.271Z,2.50
2019-04-11T07:10:49.005Z,2.50
2019-04-11T07:11:48.962Z,2.50
2019-04-11T07:12:49.375Z,2.50
2019-04-11T07:13:49.774Z,2.60
2019-04-11T07:14:48.920Z,2.30
2019-04-11T07:15:48.951Z,2.50
2019-04-11T07:17:00.501Z,2.30
2019-04-11T07:17:49.889Z,2.30
2019-04-11T07:18:48.883Z,2.50
2019-04-11T07:19:48.865Z,2.60
2019-04-11T07:20:49.909Z,2.70
2019-04-11T07:21:48.840Z,2.60
2019-04-11T07:22:48.882Z,2.30
2019-04-11T07:23:49.165Z,2.50
2019-04-11T07:24:49.531Z,2.40
2019-04-11T07:25:48.864Z,2.50
2019-04-11T07:26:49.977Z,2.70
2019-04-11T07:27:48.782Z,3.10
2019-04-11T07:28:50.121Z,2.90
2019-04-11T07:29:48.782Z,2.60
2019-04-11T07:30:49.501Z,2.60
2019-04-11T07:31:48.768Z,2.60
2019-04-11T07:32:48.753Z,2.50
2019-04-11T07:33:49.543Z,2.70
2019-04-11T07:34:49.903Z,2.60
2019-04-11T07:35:48.694Z,2.60
2019-04-11T07:36:48.683Z,2.80
2019-04-11T07:37:49.308Z,2.80
2019-04-11T07:38:50.820Z,2.80
2019-04-11T07:39:49.492Z,2.70
2019-04-11T07:40:50.243Z,3.00
2019-04-11T07:41:49.912Z,2.90
2019-04-11T07:42:49.650Z,2.90
2019-04-11T07:43:48.641Z,2.60
2019-04-11T07:44:49.506Z,3.00
2019-04-11T07:45:49.060Z,3.00
2019-04-11T07:46:49.525Z,2.70
2019-04-11T07:47:48.553Z,2.80
2019-04-11T07:48:48.546Z,2.80
2019-04-11T07:49:50.208Z,3.10
2019-04-11T07:50:48.845Z,2.90
2019-04-11T07:51:48.683Z,3.10
2019-04-11T07:52:48.496Z,2.90
2019-04-11T07:53:48.495Z,3.00
2019-04-11T07:54:48.481Z,3.10
2019-04-11T07:55:48.473Z,2.80
2019-04-11T07:56:48.649Z,2.90
2019-04-11T07:57:48.969Z,2.70
2019-04-11T07:58:48.463Z,2.80
2019-04-11T07:59:49.063Z,3.10
2019-04-11T08:00:51.347Z,2.80
2019-04-11T08:01:48.421Z,2.70
2019-04-11T08:02:48.407Z,2.80
2019-04-11T08:03:49.177Z,3.00
2019-04-11T08:04:49.346Z,2.70
2019-04-11T08:05:48.360Z,2.50
2019-04-11T08:06:48.340Z,2.70
2019-04-11T08:07:49.089Z,2.50
2019-04-11T08:08:49.417Z,2.70
2019-04-11T08:09:48.350Z,2.60
2019-04-11T08:10:48.487Z,2.60
2019-04-11T08:11:48.283Z,2.70
2019-04-11T08:12:48.275Z,2.90
2019-04-11T08:13:48.268Z,2.50
2019-04-11T08:14:48.869Z,2.80
2019-04-11T08:15:48.266Z,2.50
2019-04-11T08:16:48.242Z,2.50
2019-04-11T08:17:48.229Z,2.50
2019-04-11T08:18:48.785Z,2.50
2019-04-11T08:19:49.053Z,2.40
2019-04-11T08:20:48.195Z,2.70
2019-04-11T08:21:48.308Z,2.50
2019-04-11T08:22:49.508Z,2.60
2019-04-11T08:23:48.190Z,2.70
2019-04-11T08:24:48.966Z,2.40
2019-04-11T08:25:49.262Z,2.40
2019-04-11T08:26:48.439Z,2.50
2019-04-11T08:27:54.869Z,2.50
2019-04-11T08:28:59.683Z,2.40
2019-04-11T08:29:50.550Z,2.60
2019-04-11T08:30:48.891Z,2.70
2019-04-11T08:31:48.754Z,2.40
2019-04-11T08:32:48.074Z,2.50
2019-04-11T08:33:48.903Z,2.50
2019-04-11T08:34:48.050Z,2.30
2019-04-11T08:35:51.406Z,2.60
2019-04-11T08:36:49.028Z,2.30
2019-04-11T08:37:48.013Z,2.40
2019-04-11T08:38:48.792Z,2.10
2019-04-11T08:39:49.034Z,2.00
2019-04-11T08:40:49.124Z,2.30
2019-04-11T08:41:47.949Z,2.30
2019-04-11T08:42:48.652Z,2.40
2019-04-11T08:43:47.937Z,2.30
2019-04-11T08:44:48.132Z,2.20
2019-04-11T08:45:48.518Z,2.50
2019-04-11T08:46:47.918Z,2.30
2019-04-11T08:47:53.992Z,2.20
2019-04-11T08:48:49.015Z,2.20
2019-04-11T08:49:48.159Z,2.60
2019-04-11T08:50:47.875Z,2.00
2019-04-11T08:51:47.840Z,2.20
2019-04-11T08:52:48.595Z,2.20
2019-04-11T08:53:48.943Z,2.20
2019-04-11T08:54:47.990Z,2.00
2019-04-11T08:55:54.831Z,2.10
2019-04-11T08:56:49.421Z,2.40
2019-04-11T08:57:47.830Z,2.20
2019-04-11T08:58:48.928Z,2.30
2019-04-11T08:59:47.776Z,2.10
2019-04-11T09:00:48.967Z,2.20
2019-04-11T09:01:48.510Z,2.00
2019-04-11T09:02:47.719Z,2.10
2019-04-11T09:03:58.218Z,2.10
2019-04-11T09:04:48.695Z,2.10
2019-04-11T09:05:47.713Z,2.10
2019-04-11T09:06:47.683Z,2.30
2019-04-11T09:07:47.703Z,2.10
2019-04-11T09:08:48.863Z,2.10
2019-04-11T09:09:47.645Z,2.20
2019-04-11T09:10:49.204Z,2.00
2019-04-11T09:11:48.825Z,2.20
2019-04-11T09:12:48.874Z,2.20
2019-04-11T09:13:47.591Z,2.10
2019-04-11T09:14:48.550Z,2.00
2019-04-11T09:15:48.810Z,2.20
2019-04-11T09:16:47.936Z,2.00
2019-04-11T09:17:56.585Z,1.90
2019-04-11T09:18:48.536Z,1.90
2019-04-11T09:19:47.526Z,2.10
2019-04-11T09:20:47.783Z,2.30
2019-04-11T09:21:48.663Z,2.20
2019-04-11T09:22:47.491Z,2.10
2019-04-11T09:23:48.107Z,2.10
2019-04-11T09:24:54.746Z,2.20
2019-04-11T09:25:51.276Z,1.90
2019-04-11T09:26:47.903Z,2.00
2019-04-11T09:27:47.474Z,2.00
2019-04-11T09:28:47.426Z,2.10
2019-04-11T09:29:48.398Z,2.00
2019-04-11T09:30:47.434Z,1.90
2019-04-11T09:31:49.089Z,1.90
2019-04-11T09:32:48.592Z,2.10
2019-04-11T09:35:02.871Z,2.40
2019-04-11T09:36:03.790Z,2.20
2019-04-11T09:37:03.141Z,1.90
2019-04-11T09:38:02.725Z,2.00
2019-04-11T09:39:02.733Z,2.20
2019-04-11T09:40:03.740Z,2.10
2019-04-11T09:41:03.927Z,2.20
2019-04-11T09:42:03.066Z,2.10
2019-04-11T09:43:03.816Z,2.00
2019-04-11T09:44:02.658Z,2.00
2019-04-11T09:45:03.538Z,2.10
2019-04-11T09:46:02.858Z,2.20
2019-04-11T09:47:03.442Z,2.20
2019-04-11T09:48:12.557Z,2.00
2019-04-11T09:49:04.499Z,2.10
2019-04-11T09:50:02.590Z,2.00
2019-04-11T09:51:02.618Z,1.90
2019-04-11T09:52:02.691Z,2.00
2019-04-11T09:53:03.634Z,2.10
2019-04-11T09:54:03.588Z,2.00
2019-04-11T09:55:02.545Z,1.90
2019-04-11T09:56:02.656Z,1.90
2019-04-11T09:57:02.521Z,2.10
2019-04-11T09:58:03.018Z,2.00
2019-04-11T09:59:02.490Z,2.00
2019-04-11T10:00:03.751Z,1.70
2019-04-11T10:01:03.715Z,1.80
2019-04-11T10:02:02.538Z,1.80
2019-04-11T10:03:02.452Z,1.70
2019-04-11T10:04:03.630Z,1.90
2019-04-11T10:05:02.747Z,1.80
2019-04-11T10:06:03.012Z,1.70
2019-04-11T10:07:03.415Z,1.90
2019-04-11T10:08:02.401Z,2.10
2019-04-11T10:09:03.723Z,2.00
2019-04-11T10:10:02.666Z,1.90
2019-04-11T10:11:03.678Z,1.80
2019-04-11T10:12:02.487Z,1.90
2019-04-11T10:13:02.660Z,1.70
2019-04-11T10:14:02.331Z,1.90
2019-04-11T10:15:03.080Z,1.90
2019-04-11T10:16:02.336Z,1.60
2019-04-11T10:17:02.356Z,1.70
2019-04-11T10:18:03.135Z,2.00
2019-04-11T10:19:03.371Z,1.80
2019-04-11T10:20:02.673Z,1.90
2019-04-11T10:21:02.249Z,1.80
2019-04-11T10:22:02.791Z,1.80
2019-04-11T10:23:03.358Z,1.80
2019-04-11T10:24:02.250Z,2.10
2019-04-11T10:25:03.245Z,2.00
2019-04-11T10:26:03.424Z,1.80
2019-04-11T10:27:02.637Z,1.90
2019-04-11T10:28:02.838Z,1.90
2019-04-11T10:29:02.284Z,2.10
2019-04-11T10:30:02.160Z,2.10
2019-04-11T10:31:02.217Z,1.90
2019-04-11T10:32:03.196Z,2.00
2019-04-11T10:33:02.111Z,1.80
2019-04-11T10:34:03.212Z,1.80
2019-04-11T10:35:02.106Z,1.90
2019-04-11T10:36:03.043Z,1.80
2019-04-11T10:37:03.363Z,1.90
2019-04-11T10:38:02.329Z,1.80
2019-04-11T10:39:02.760Z,1.90
2019-04-11T10:40:02.095Z,2.20
2019-04-11T10:41:02.040Z,2.00
2019-04-11T10:42:02.245Z,1.90
2019-04-11T10:43:02.523Z,2.10
2019-04-11T10:44:01.993Z,1.90
2019-04-11T10:45:02.739Z,1.70
2019-04-11T10:46:02.819Z,1.90
2019-04-11T10:47:02.090Z,1.80
2019-04-11T10:48:03.205Z,1.60
2019-04-11T10:49:01.949Z,2.10
2019-04-11T10:50:03.044Z,1.90
2019-04-11T10:51:01.910Z,1.50
2019-04-11T10:52:02.401Z,2.10
2019-04-11T10:53:02.715Z,2.10
2019-04-11T10:54:04.285Z,1.80
2019-04-11T10:55:03.083Z,1.90
2019-04-11T10:56:02.223Z,1.90
2019-04-11T10:57:01.847Z,2.40
2019-04-11T10:58:02.691Z,2.30
2019-04-11T10:59:09.188Z,2.00
2019-04-11T11:00:03.029Z,2.10
2019-04-11T11:01:01.903Z,2.20
2019-04-11T11:02:01.811Z,2.00
2019-04-11T11:03:02.013Z,2.00
2019-04-11T11:04:01.767Z,1.90
2019-04-11T11:05:03.095Z,2.20
2019-04-11T11:06:01.742Z,2.60
2019-04-11T11:07:02.354Z,2.00
2019-04-11T11:08:01.733Z,2.10
2019-04-11T11:09:01.828Z,2.40
2019-04-11T11:10:03.025Z,2.60
2019-04-11T11:11:01.857Z,2.50
2019-04-11T11:12:01.682Z,2.30
2019-04-11T11:13:01.674Z,2.20
2019-04-11T11:14:02.561Z,2.10
2019-04-11T11:15:03.067Z,2.20
2019-04-11T11:16:02.284Z,2.10
2019-04-11T11:17:02.408Z,2.30
2019-04-11T11:18:31.912Z,2.30
2019-04-11T11:19:28.931Z,2.40
2019-04-11T11:20:12.821Z,2.50
2019-04-11T11:21:05.172Z,2.80
2019-04-11T11:22:03.364Z,2.40
2019-04-11T11:23:05.789Z,2.50
2019-04-11T11:24:05.390Z,2.70
2019-04-11T11:25:02.350Z,2.40
2019-04-11T11:26:02.696Z,2.20
2019-04-11T11:27:04.103Z,2.40
2019-04-11T11:28:03.196Z,2.80
2019-04-11T11:29:07.080Z,2.50
2019-04-11T11:30:04.408Z,2.50
2019-04-11T11:31:01.465Z,2.90
2019-04-11T11:32:01.457Z,3.10
2019-04-11T11:33:02.272Z,2.40
2019-04-11T11:34:01.435Z,2.60
2019-04-11T11:35:01.436Z,2.60
2019-04-11T11:36:04.562Z,2.90
2019-04-11T11:37:02.670Z,2.60
2019-04-11T11:38:01.955Z,3.20
2019-04-11T11:39:02.447Z,2.70
2019-04-11T11:40:04.902Z,2.30
2019-04-11T11:41:02.385Z,2.50
2019-04-11T11:42:02.110Z,2.40
2019-04-11T11:43:01.378Z,2.20
2019-04-11T11:44:01.340Z,3.10
2019-04-11T11:45:02.540Z,2.60
2019-04-11T11:46:01.385Z,2.60
2019-04-11T11:47:03.357Z,2.50
2019-04-11T11:48:01.531Z,2.50
2019-04-11T11:49:02.773Z,3.10
2019-04-11T11:50:03.316Z,3.10
2019-04-11T11:51:01.308Z,2.80
2019-04-11T11:52:01.923Z,3.90
2019-04-11T11:53:05.443Z,3.30
2019-04-11T11:54:02.931Z,2.90
2019-04-11T11:55:02.172Z,3.20
2019-04-11T11:56:02.109Z,3.20
2019-04-11T11:57:02.315Z,3.20
2019-04-11T11:58:01.990Z,3.50
2019-04-11T11:59:01.209Z,3.20
2019-04-11T12:00:01.215Z,2.90
2019-04-11T12:01:04.523Z,3.30
2019-04-11T12:02:02.361Z,3.20
2019-04-11T12:03:02.366Z,3.10
2019-04-11T12:04:03.115Z,3.10
2019-04-11T12:05:02.486Z,3.20
2019-04-11T12:06:01.086Z,3.30
2019-04-11T12:07:03.766Z,3.40
2019-04-11T12:08:01.131Z,3.20
2019-04-11T12:09:02.378Z,3.70
2019-04-11T12:10:01.028Z,3.40
2019-04-11T12:11:01.879Z,4.20
2019-04-11T12:12:02.229Z,3.70
2019-04-11T12:13:06.703Z,4.30
2019-04-11T12:14:02.084Z,3.50
2019-04-11T12:15:01.446Z,3.80
2019-04-11T12:16:01.547Z,3.70
2019-04-11T12:17:03.807Z,3.20
2019-04-11T12:18:01.783Z,3.30
2019-04-11T12:19:00.951Z,3.30
2019-04-11T12:20:06.430Z,3.70
2019-04-11T12:21:03.091Z,3.50
2019-04-11T12:22:02.171Z,3.60
2019-04-11T12:23:01.151Z,3.50
2019-04-11T12:24:05.568Z,3.40
2019-04-11T12:25:02.932Z,4.20
2019-04-11T12:26:01.189Z,3.60
2019-04-11T12:27:00.843Z,3.90
2019-04-11T12:28:00.829Z,3.80
2019-04-11T12:29:01.707Z,3.80
2019-04-11T12:30:03.218Z,3.70
2019-04-11T12:31:03.748Z,4.20
2019-04-11T12:32:00.835Z,3.90
2019-04-11T12:33:01.396Z,3.60
2019-04-11T12:34:01.690Z,3.60
2019-04-11T12:35:02.063Z,3.50
2019-04-11T12:36:01.316Z,3.80
2019-04-11T12:37:00.750Z,3.90
2019-04-11T12:38:00.729Z,3.80
2019-04-11T12:39:00.741Z,3.50
2019-04-11T12:40:00.706Z,3.30
2019-04-11T12:41:00.696Z,3.30
2019-04-11T12:42:00.696Z,3.80
2019-04-11T12:43:00.671Z,3.70
2019-04-11T12:44:00.657Z,3.60
2019-04-11T12:45:00.640Z,3.70
2019-04-11T12:46:00.697Z,4.00
2019-04-11T12:47:00.624Z,3.90
2019-04-11T12:48:00.649Z,4.20
2019-04-11T12:49:00.605Z,4.10
2019-04-11T12:50:00.595Z,4.20
2019-04-11T12:51:00.575Z,4.50
2019-04-11T12:52:00.578Z,4.20
2019-04-11T12:53:00.571Z,3.80
2019-04-11T12:54:00.627Z,3.60
2019-04-11T12:55:00.531Z,4.10
2019-04-11T12:56:00.565Z,4.30
2019-04-11T12:57:00.539Z,3.80
2019-04-11T12:58:00.498Z,3.70
2019-04-11T12:59:00.543Z,3.60
2019-04-11T13:00:00.478Z,3.80
2019-04-11T13:01:00.467Z,3.80
2019-04-11T13:02:00.459Z,3.70
2019-04-11T13:03:00.459Z,4.30
2019-04-11T13:04:00.461Z,4.20
2019-04-11T13:05:00.434Z,3.80
2019-04-11T13:06:00.414Z,3.90
2019-04-11T13:07:00.398Z,3.70
2019-04-11T13:08:00.395Z,4.20
2019-04-11T13:09:00.374Z,3.80
2019-04-11T13:10:00.400Z,3.70
2019-04-11T13:11:00.354Z,4.00
2019-04-11T13:12:00.342Z,4.50
2019-04-11T13:13:00.335Z,4.30
2019-04-11T13:14:00.336Z,4.00
2019-04-11T13:15:00.321Z,4.00
2019-04-11T13:16:11.324Z,3.90
2019-04-11T13:17:01.309Z,4.40
2019-04-11T13:18:00.306Z,4.00
2019-04-11T13:19:00.311Z,4.60
2019-04-11T13:20:04.939Z,4.00
2019-04-11T13:21:00.247Z,4.30
2019-04-11T13:22:00.231Z,3.80
2019-04-11T13:23:00.231Z,3.80